Flight Track Log - Related Links

Times and Time Zones

All times are in EDT time to prevent confusion due to time zone crossing. See the SWA2624 flight status page for this flight to view local times or setup timezone preferences in your user account.

Time Position Orientation Groundspeed Altitude Reporting Facility
EDT Latitude Longitude Course Direction KTS MPH feet Rate Location/Type
Sat 01:25:28 AM 34.9953 -106.5839 189° South 227 261 8,200  Level Albuquerque Center
Sat 01:25:58 AM 34.9939 -106.6103 266° West 224 258 9,400 2,440 Climbing Albuquerque Center
Sat 01:26:59 AM 35.0136 -106.6936 286° West 244 281 11,900 2,656 Climbing Albuquerque Center
Sat 01:28:00 AM 35.0356 -106.7992 284° West 306 352 14,800 2,876 Climbing Albuquerque Center
Sat 01:29:00 AM 35.0636 -106.9192 286° West 339 390 17,700 3,372 Climbing Albuquerque Center
Sat 01:30:01 AM 35.0936 -107.0539 285° West 366 421 21,600 3,223 Climbing Albuquerque Center
Sat 01:31:01 AM 35.1056 -107.1742 277° West 372 428 24,200 2,479 Climbing Albuquerque Center
Sat 01:32:02 AM 35.1175 -107.3056 276° West 396 456 26,600 2,331 Climbing Albuquerque Center
Sat 01:33:02 AM 35.1322 -107.4361 278° West 392 451 28,900 2,777 Climbing Albuquerque Center
Sat 01:34:03 AM 35.1458 -107.5753 277° West 389 448 32,200 2,628 Climbing Albuquerque Center
Sat 01:35:03 AM 35.1592 -107.6903 278° West 367 422 34,200 1,736 Climbing Albuquerque Center
Sat 01:36:04 AM 35.1706 -107.8072 277° West 362 417 35,700 1,686 Climbing Albuquerque Center
Sat 01:37:04 AM 35.1853 -107.9444 278° West 363 418 37,600 1,240 Climbing Albuquerque Center
Sat 01:38:05 AM 35.1969 -108.0622 277° West 363 418 38,200 744 Climbing Albuquerque Center
Sat 01:39:05 AM 35.2094 -108.1842 277° West 372 428 39,100 893 Climbing Albuquerque Center
Sat 01:40:06 AM 35.2239 -108.3253 277° West 374 430 40,000 446 Climbing Albuquerque Center
Sat 01:41:06 AM 35.2361 -108.4472 277° West 375 432 40,000  Level Albuquerque Center
Sat 01:42:07 AM 35.2478 -108.5706 277° West 379 436 40,000  Level Albuquerque Center
Sat 01:43:07 AM 35.2600 -108.6931 277° West 379 436 40,000  Level Albuquerque Center
Sat 01:44:08 AM 35.2739 -108.8369 277° West 380 437 40,000  Level Albuquerque Center
Sat 01:45:08 AM 35.2861 -108.9603 277° West 380 437 40,000  Level Albuquerque Center
Sat 01:46:09 AM 35.2967 -109.0825 276° West 378 435 40,000  Level Albuquerque Center
Sat 01:47:09 AM 35.3103 -109.2239 277° West 375 432 40,000  Level Albuquerque Center
Sat 01:48:10 AM 35.3219 -109.3483 277° West 379 436 40,000  Level Albuquerque Center
Sat 01:49:10 AM 35.3325 -109.4719 276° West 380 437 40,000  Level Albuquerque Center
Sat 01:50:10 AM 35.3428 -109.5936 276° West 376 433 40,000  Level Albuquerque Center
Sat 01:51:11 AM 35.3547 -109.7375 276° West 379 436 40,000  Level Albuquerque Center
Sat 01:52:11 AM 35.3667 -109.8617 277° West 383 441 40,000  Level Albuquerque Center
Sat 01:53:12 AM 35.3772 -109.9833 276° West 378 435 40,000  Level Albuquerque Center
Sat 01:54:12 AM 35.3861 -110.1250 274° West 378 435 40,000  Level Albuquerque Center
Sat 01:55:13 AM 35.3947 -110.2450 275° West 374 430 40,000  Level Albuquerque Center
Sat 01:56:13 AM 35.4056 -110.3669 276° West 374 430 40,000  Level Albuquerque Center
Sat 01:57:14 AM 35.4153 -110.4886 276° West 375 432 40,000  Level Albuquerque Center
Sat 01:58:14 AM 35.4264 -110.6308 276° West 375 432 40,000 -446 Level Albuquerque Center
Sat 01:59:15 AM 35.4364 -110.7511 276° West 373 429 39,100 -893 Descending Albuquerque Center
Sat 02:00:15 AM 35.4444 -110.8703 275° West 368 423 38,200 -1,000 Descending Albuquerque Center
Sat 02:01:15 AM 35.4564 -111.0128 276° West 373 429 37,100 -992 Descending Albuquerque Center
Sat 02:02:16 AM 35.4656 -111.1275 276° West 361 415 36,200 -893 Descending Albuquerque Center
Sat 02:03:16 AM 35.4744 -111.2397 276° West 351 404 35,300 -992 Descending Albuquerque Center
Sat 02:04:17 AM 35.4844 -111.3719 275° West 349 402 34,200 -645 Descending Albuquerque Center
Sat 02:05:17 AM 35.4928 -111.4861 275° West 373 429 34,000 -99 Descending Albuquerque Center
Sat 02:06:18 AM 35.5011 -111.6058 275° West 360 414 34,000  Level Albuquerque Center
Sat 02:07:18 AM 35.5092 -111.7253 275° West 355 409 34,000  Level Albuquerque Center
Sat 02:08:18 AM 35.5181 -111.8456 275° West 355 409 34,000  Level Albuquerque Center
Sat 02:09:19 AM 35.5256 -111.9656 274° West 355 409 34,000  Level Albuquerque Center
Sat 02:10:19 AM 35.5339 -112.0831 275° West 350 403 34,000  Level Albuquerque Center
Sat 02:11:20 AM 35.5422 -112.2025 275° West 351 404 34,000  Level Albuquerque Center
Sat 02:12:20 AM 35.5508 -112.3217 275° West 353 406 34,000  Level Albuquerque Center
Sat 02:13:24 AM 35.5600 -112.4639 275° West 351 404 34,000  Level Los Angeles Center
Sat 02:14:25 AM 35.5675 -112.5844 274° West 355 409 34,000  Level Los Angeles Center
Sat 02:15:26 AM 35.5758 -112.7094 275° West 353 406 34,000  Level Los Angeles Center
Sat 02:16:26 AM 35.5833 -112.8297 274° West 353 406 34,000  Level Los Angeles Center
Sat 02:17:27 AM 35.5911 -112.9492 275° West 355 409 34,000 -443 Level Los Angeles Center
Sat 02:18:28 AM 35.5975 -113.0694 274° West 353 406 33,100 -934 Descending Los Angeles Center
Sat 02:19:29 AM 35.6044 -113.1903 274° West 353 406 32,100 -984 Descending Los Angeles Center
Sat 02:20:30 AM 35.6108 -113.2986 274° West 359 413 31,100 -1,835 Descending Los Angeles Center
Sat 02:21:30 AM 35.6192 -113.4406 274° West 351 404 28,400 -2,380 Descending Los Angeles Center
Sat 02:22:31 AM 35.6261 -113.5581 274° West 347 399 26,300 -2,213 Descending Los Angeles Center
Sat 02:23:32 AM 35.6433 -113.6781 280° West 355 409 23,900 -2,361 Descending Los Angeles Center
Sat 02:24:33 AM 35.6600 -113.7931 280° West 346 398 21,500 -2,331 Descending Los Angeles Center
Sat 02:25:33 AM 35.6764 -113.9047 280° West 337 388 19,200 -1,714 Descending Los Angeles Center
Sat 02:26:46 AM 35.6919 -114.0142 280° West 330 380 17,700 -1,791 Descending Los Angeles Center
Sat 02:27:47 AM 35.7094 -114.1444 279° West 323 372 15,200 -2,424 Descending Los Angeles Center
Sat 02:28:25 AM 35.7242 -114.2256 283° West 337 388 13,700 -2,189 Descending Los Angeles Center
Sat 02:29:01 AM 35.7306 -114.2925 277° West 329 379 12,500 -1,229 Descending Los Angeles Center
Sat 02:29:48 AM 35.7381 -114.3567 278° West 316 364 12,000 -896 Descending Los Angeles Center
Sat 02:30:08 AM 35.7594 -114.3917 307° West 287 330 11,500 -984 Descending Los Angeles Center
Sat 02:30:49 AM 35.7908 -114.4206 323° Northwest 278 320 11,000 -1,000 Descending Los Angeles Center
Sat 02:31:50 AM 35.8594 -114.4972 318° Northwest 274 315 9,800 -1,125 Descending Los Angeles Center
Sat 02:32:09 AM 35.8789 -114.5186 318° Northwest 274 315 9,500 -984 Descending Los Angeles Center
Sat 02:32:51 AM 35.9156 -114.5567 320° Northwest 272 313 8,800 -984 Descending Los Angeles Center
Sat 02:33:10 AM 35.9317 -114.5806 310° West 270 311 8,500 -1,000 Descending Los Angeles Center
Sat 02:33:51 AM 35.9556 -114.6317 300° West 266 306 7,800 -882 Descending Los Angeles Center
Sat 02:34:52 AM 35.9847 -114.7181 293° West 270 311 7,000 -393 Descending Los Angeles Center
Sat 02:35:53 AM 36.0172 -114.8014 296° West 270 311 7,000 -209 Level Los Angeles Center
Sat 02:36:18 AM 36.0328 -114.8419 295° West 267 307 6,700 -600 Descending Los Angeles Center
Sat 02:36:53 AM 36.0492 -114.8828 296° West 267 307 6,400 -500 Descending Los Angeles Center
Sat 02:37:54 AM 36.0783 -114.9586 295° West 258 297 5,900 -525 Descending Los Angeles Center
Sat 02:38:13 AM 36.0739 -114.9800 256° West 194 223 5,700 -1,082 Descending Los Angeles Center
Sat 02:38:55 AM 36.0742 -115.0103 271° West 190 219 4,800 -1,747 Descending Los Angeles Center
Sat 02:39:32 AM 36.0733 -115.0467 268° West 150 173 3,400 -1,700 Descending Los Angeles Center
Sat 02:39:55 AM 36.0744 -115.0611 275° West 162 186 3,100 -787 Descending Los Angeles Center
Sat 02:40:33 AM 36.0725 -115.0922 266° West 132 152 2,600 -689 Descending Los Angeles Center
Sat 02:40:56 AM 36.0739 -115.1047 278° West 145 167 2,400 -522 Descending Los Angeles Center
Sat 02:42:00 AM 36.0667 -115.1500 270° West  Level FlightAware Approximate
Sat 02:49:00 AM 36.0801 -115.1523 270° West  Level Estimated

Login

Don't have an account? Register now (free) for customized features, flight alerts, and more!